X  Close Metar Aviation Weather Data     LBPD Plovdiv International Airport
Temperature
27°C Temperature
17°C Dewpoint
54% Humidity



Wind
3 MPH
5 KM/H
1 M/S
3 KTS



280°
W
Current Conditions

Partly Cloudy Partly Cloudy
Pressure 1009.82 (hPa) - 29.82 (inHg)
Visibility 6 (mile) - 9.7 (km)
Airport
Airport-code LBPD

Location: Plovdiv International Airport
Distance: 14 (mi)

Metar:
LBPD 210630Z AUTO 28003KT 200V330 9999 FEW100/// 27/17 Q1010 NOSIG

Time: 21-07-2024 09:30 EEST